sensor_id;sensor_type;location;lat;lon;timestamp;temperature;humidity
4673;DHT22;61885;53.560;9.940;2023-09-19T00:01:13;17.30;88.30
4673;DHT22;61885;53.560;9.940;2023-09-19T00:03:46;17.40;88.30
4673;DHT22;61885;53.560;9.940;2023-09-19T00:06:16;17.30;88.30
4673;DHT22;61885;53.560;9.940;2023-09-19T00:08:47;17.30;88.60
4673;DHT22;61885;53.560;9.940;2023-09-19T00:11:19;17.20;88.50
4673;DHT22;61885;53.560;9.940;2023-09-19T00:13:53;17.30;88.60
4673;DHT22;61885;53.560;9.940;2023-09-19T00:16:24;17.30;88.50
4673;DHT22;61885;53.560;9.940;2023-09-19T00:18:55;17.20;88.70
4673;DHT22;61885;53.560;9.940;2023-09-19T00:21:26;17.30;88.70
4673;DHT22;61885;53.560;9.940;2023-09-19T00:23:57;17.30;88.70
4673;DHT22;61885;53.560;9.940;2023-09-19T00:26:29;17.30;88.80
4673;DHT22;61885;53.560;9.940;2023-09-19T00:29:00;17.20;88.80
4673;DHT22;61885;53.560;9.940;2023-09-19T00:31:35;17.20;88.80
4673;DHT22;61885;53.560;9.940;2023-09-19T00:34:04;17.20;88.60
4673;DHT22;61885;53.560;9.940;2023-09-19T00:36:37;17.30;88.80
4673;DHT22;61885;53.560;9.940;2023-09-19T00:39:09;17.20;89.00
4673;DHT22;61885;53.560;9.940;2023-09-19T00:41:42;17.20;88.70
4673;DHT22;61885;53.560;9.940;2023-09-19T00:44:17;17.20;89.00
4673;DHT22;61885;53.560;9.940;2023-09-19T00:46:51;17.20;89.00
4673;DHT22;61885;53.560;9.940;2023-09-19T00:49:24;17.20;88.70
4673;DHT22;61885;53.560;9.940;2023-09-19T00:51:54;17.10;88.70
4673;DHT22;61885;53.560;9.940;2023-09-19T00:54:25;17.20;88.70
4673;DHT22;61885;53.560;9.940;2023-09-19T00:56:59;17.30;88.80
4673;DHT22;61885;53.560;9.940;2023-09-19T00:59:28;17.30;88.60
4673;DHT22;61885;53.560;9.940;2023-09-19T01:02:00;17.20;88.90
4673;DHT22;61885;53.560;9.940;2023-09-19T01:04:31;17.30;88.90
4673;DHT22;61885;53.560;9.940;2023-09-19T01:07:01;17.20;88.60
4673;DHT22;61885;53.560;9.940;2023-09-19T01:09:30;17.30;88.70
4673;DHT22;61885;53.560;9.940;2023-09-19T01:12:06;17.10;88.70
4673;DHT22;61885;53.560;9.940;2023-09-19T01:14:42;17.20;88.70
4673;DHT22;61885;53.560;9.940;2023-09-19T01:17:24;17.10;88.70
4673;DHT22;61885;53.560;9.940;2023-09-19T01:20:14;17.20;88.70
4673;DHT22;61885;53.560;9.940;2023-09-19T01:22:56;17.20;88.60
4673;DHT22;61885;53.560;9.940;2023-09-19T01:28:54;17.20;88.60
4673;DHT22;61885;53.560;9.940;2023-09-19T01:31:37;17.10;87.60
4673;DHT22;61885;53.560;9.940;2023-09-19T01:34:09;17.20;87.30
4673;DHT22;61885;53.560;9.940;2023-09-19T01:36:39;17.20;87.20
4673;DHT22;61885;53.560;9.940;2023-09-19T01:39:11;17.00;86.70
4673;DHT22;61885;53.560;9.940;2023-09-19T01:41:55;17.20;86.40
4673;DHT22;61885;53.560;9.940;2023-09-19T01:44:33;17.20;86.50
4673;DHT22;61885;53.560;9.940;2023-09-19T01:47:13;17.20;86.60
4673;DHT22;61885;53.560;9.940;2023-09-19T01:49:55;17.20;86.70
4673;DHT22;61885;53.560;9.940;2023-09-19T01:52:33;17.00;85.70
4673;DHT22;61885;53.560;9.940;2023-09-19T01:55:09;17.00;85.50
4673;DHT22;61885;53.560;9.940;2023-09-19T01:57:48;17.00;85.40
4673;DHT22;61885;53.560;9.940;2023-09-19T02:00:20;16.90;85.50
4673;DHT22;61885;53.560;9.940;2023-09-19T02:02:54;16.90;85.60
4673;DHT22;61885;53.560;9.940;2023-09-19T02:05:26;16.90;85.70
4673;DHT22;61885;53.560;9.940;2023-09-19T02:08:05;16.80;86.00
4673;DHT22;61885;53.560;9.940;2023-09-19T02:10:35;16.80;86.50
4673;DHT22;61885;53.560;9.940;2023-09-19T02:13:12;16.80;86.90
4673;DHT22;61885;53.560;9.940;2023-09-19T02:15:46;16.70;87.40
4673;DHT22;61885;53.560;9.940;2023-09-19T02:18:18;16.70;88.10
4673;DHT22;61885;53.560;9.940;2023-09-19T02:20:48;16.70;88.60
4673;DHT22;61885;53.560;9.940;2023-09-19T02:23:19;16.70;88.90
4673;DHT22;61885;53.560;9.940;2023-09-19T02:25:52;16.60;89.30
4673;DHT22;61885;53.560;9.940;2023-09-19T02:28:25;16.60;89.50
4673;DHT22;61885;53.560;9.940;2023-09-19T02:30:58;16.60;89.60
4673;DHT22;61885;53.560;9.940;2023-09-19T02:33:45;16.50;89.80
4673;DHT22;61885;53.560;9.940;2023-09-19T02:36:15;16.50;90.10
4673;DHT22;61885;53.560;9.940;2023-09-19T02:38:48;16.60;90.00
4673;DHT22;61885;53.560;9.940;2023-09-19T02:41:18;16.60;89.90
4673;DHT22;61885;53.560;9.940;2023-09-19T02:43:49;16.50;89.70
4673;DHT22;61885;53.560;9.940;2023-09-19T02:46:20;16.50;89.90
4673;DHT22;61885;53.560;9.940;2023-09-19T02:48:53;16.50;89.90
4673;DHT22;61885;53.560;9.940;2023-09-19T02:51:26;16.50;89.70
4673;DHT22;61885;53.560;9.940;2023-09-19T02:53:57;16.50;89.60
4673;DHT22;61885;53.560;9.940;2023-09-19T02:56:30;16.60;89.50
4673;DHT22;61885;53.560;9.940;2023-09-19T02:59:02;16.50;89.30
4673;DHT22;61885;53.560;9.940;2023-09-19T03:01:34;16.50;89.50
4673;DHT22;61885;53.560;9.940;2023-09-19T03:04:07;16.50;89.40
4673;DHT22;61885;53.560;9.940;2023-09-19T03:06:38;16.60;89.30
4673;DHT22;61885;53.560;9.940;2023-09-19T03:09:08;16.60;89.00
4673;DHT22;61885;53.560;9.940;2023-09-19T03:11:40;16.60;88.80
4673;DHT22;61885;53.560;9.940;2023-09-19T03:14:12;16.50;88.80
4673;DHT22;61885;53.560;9.940;2023-09-19T03:16:44;16.60;88.20
4673;DHT22;61885;53.560;9.940;2023-09-19T03:19:17;16.50;88.00
4673;DHT22;61885;53.560;9.940;2023-09-19T03:21:49;16.60;87.80
4673;DHT22;61885;53.560;9.940;2023-09-19T03:24:21;16.60;87.70
4673;DHT22;61885;53.560;9.940;2023-09-19T03:26:51;16.70;87.50
4673;DHT22;61885;53.560;9.940;2023-09-19T03:29:25;16.60;87.30
4673;DHT22;61885;53.560;9.940;2023-09-19T03:31:55;16.60;87.50
4673;DHT22;61885;53.560;9.940;2023-09-19T03:34:28;16.50;87.60
4673;DHT22;61885;53.560;9.940;2023-09-19T03:36:57;16.50;87.70
4673;DHT22;61885;53.560;9.940;2023-09-19T03:39:28;16.40;87.80
4673;DHT22;61885;53.560;9.940;2023-09-19T03:42:00;16.40;87.80
4673;DHT22;61885;53.560;9.940;2023-09-19T03:44:36;16.30;88.00
4673;DHT22;61885;53.560;9.940;2023-09-19T03:47:06;16.20;88.00
4673;DHT22;61885;53.560;9.940;2023-09-19T03:49:39;16.30;87.60
4673;DHT22;61885;53.560;9.940;2023-09-19T03:52:10;16.20;87.60
4673;DHT22;61885;53.560;9.940;2023-09-19T03:54:45;16.10;86.90
4673;DHT22;61885;53.560;9.940;2023-09-19T03:57:15;16.10;86.70
4673;DHT22;61885;53.560;9.940;2023-09-19T03:59:49;16.10;87.00
4673;DHT22;61885;53.560;9.940;2023-09-19T04:02:20;15.90;86.80
4673;DHT22;61885;53.560;9.940;2023-09-19T04:04:54;15.80;86.10
4673;DHT22;61885;53.560;9.940;2023-09-19T04:07:23;15.80;86.10
4673;DHT22;61885;53.560;9.940;2023-09-19T04:09:55;15.80;84.90
4673;DHT22;61885;53.560;9.940;2023-09-19T04:12:32;15.70;84.60
4673;DHT22;61885;53.560;9.940;2023-09-19T04:15:02;15.70;84.40
4673;DHT22;61885;53.560;9.940;2023-09-19T04:17:37;15.70;84.10
4673;DHT22;61885;53.560;9.940;2023-09-19T04:20:10;15.60;83.50
4673;DHT22;61885;53.560;9.940;2023-09-19T04:22:40;15.50;83.60
4673;DHT22;61885;53.560;9.940;2023-09-19T04:25:11;15.40;83.70
4673;DHT22;61885;53.560;9.940;2023-09-19T04:27:41;15.50;83.70
4673;DHT22;61885;53.560;9.940;2023-09-19T04:30:11;15.40;83.80
4673;DHT22;61885;53.560;9.940;2023-09-19T04:32:43;15.50;83.70
4673;DHT22;61885;53.560;9.940;2023-09-19T04:35:19;15.40;83.60
4673;DHT22;61885;53.560;9.940;2023-09-19T04:37:50;15.30;84.50
4673;DHT22;61885;53.560;9.940;2023-09-19T04:40:21;15.30;84.20
4673;DHT22;61885;53.560;9.940;2023-09-19T04:42:53;15.20;84.40
4673;DHT22;61885;53.560;9.940;2023-09-19T04:45:28;15.20;84.40
4673;DHT22;61885;53.560;9.940;2023-09-19T04:47:57;15.20;84.20
4673;DHT22;61885;53.560;9.940;2023-09-19T04:50:29;15.10;84.60
4673;DHT22;61885;53.560;9.940;2023-09-19T04:52:59;15.10;84.90
4673;DHT22;61885;53.560;9.940;2023-09-19T04:55:30;15.20;85.00
4673;DHT22;61885;53.560;9.940;2023-09-19T04:57:59;15.00;85.20
4673;DHT22;61885;53.560;9.940;2023-09-19T05:00:29;15.10;85.40
4673;DHT22;61885;53.560;9.940;2023-09-19T05:03:02;15.00;85.40
4673;DHT22;61885;53.560;9.940;2023-09-19T05:05:38;15.00;85.40
4673;DHT22;61885;53.560;9.940;2023-09-19T05:08:16;15.00;85.10
4673;DHT22;61885;53.560;9.940;2023-09-19T05:10:48;15.00;85.60
4673;DHT22;61885;53.560;9.940;2023-09-19T05:13:20;15.00;85.90
4673;DHT22;61885;53.560;9.940;2023-09-19T05:15:50;15.00;85.90
4673;DHT22;61885;53.560;9.940;2023-09-19T05:18:20;15.00;86.00
4673;DHT22;61885;53.560;9.940;2023-09-19T05:20:53;14.90;86.20
4673;DHT22;61885;53.560;9.940;2023-09-19T05:23:24;14.90;86.50
4673;DHT22;61885;53.560;9.940;2023-09-19T05:25:55;14.80;86.50
4673;DHT22;61885;53.560;9.940;2023-09-19T05:28:26;14.80;86.70
4673;DHT22;61885;53.560;9.940;2023-09-19T05:31:00;14.90;86.60
4673;DHT22;61885;53.560;9.940;2023-09-19T05:33:30;14.80;86.60
4673;DHT22;61885;53.560;9.940;2023-09-19T05:36:04;14.90;86.50
4673;DHT22;61885;53.560;9.940;2023-09-19T05:38:38;14.90;86.60
4673;DHT22;61885;53.560;9.940;2023-09-19T05:41:09;14.90;86.30
4673;DHT22;61885;53.560;9.940;2023-09-19T05:43:41;14.90;86.20
4673;DHT22;61885;53.560;9.940;2023-09-19T05:46:11;14.80;86.10
4673;DHT22;61885;53.560;9.940;2023-09-19T05:48:45;14.80;86.10
4673;DHT22;61885;53.560;9.940;2023-09-19T05:51:19;15.00;85.70
4673;DHT22;61885;53.560;9.940;2023-09-19T05:53:53;15.00;85.50
4673;DHT22;61885;53.560;9.940;2023-09-19T05:56:24;14.90;85.70
4673;DHT22;61885;53.560;9.940;2023-09-19T05:58:55;15.10;85.10
4673;DHT22;61885;53.560;9.940;2023-09-19T06:01:27;15.20;84.90
4673;DHT22;61885;53.560;9.940;2023-09-19T06:03:57;15.20;84.70
4673;DHT22;61885;53.560;9.940;2023-09-19T06:06:29;15.30;84.50
4673;DHT22;61885;53.560;9.940;2023-09-19T06:09:03;15.30;84.30
4673;DHT22;61885;53.560;9.940;2023-09-19T06:11:34;15.30;84.30
4673;DHT22;61885;53.560;9.940;2023-09-19T06:14:12;15.30;84.30
4673;DHT22;61885;53.560;9.940;2023-09-19T06:16:44;15.40;83.70
4673;DHT22;61885;53.560;9.940;2023-09-19T06:19:15;15.40;83.80
4673;DHT22;61885;53.560;9.940;2023-09-19T06:21:50;15.50;83.70
4673;DHT22;61885;53.560;9.940;2023-09-19T06:24:21;15.40;83.40
4673;DHT22;61885;53.560;9.940;2023-09-19T06:26:54;15.50;83.30
4673;DHT22;61885;53.560;9.940;2023-09-19T06:29:24;15.50;83.30
4673;DHT22;61885;53.560;9.940;2023-09-19T06:31:54;15.60;83.10
4673;DHT22;61885;53.560;9.940;2023-09-19T06:34:24;15.70;82.80
4673;DHT22;61885;53.560;9.940;2023-09-19T06:36:59;15.80;82.60
4673;DHT22;61885;53.560;9.940;2023-09-19T06:39:29;15.70;82.20
4673;DHT22;61885;53.560;9.940;2023-09-19T06:41:58;15.70;82.50
4673;DHT22;61885;53.560;9.940;2023-09-19T06:44:28;15.80;82.50
4673;DHT22;61885;53.560;9.940;2023-09-19T06:46:58;15.90;82.40
4673;DHT22;61885;53.560;9.940;2023-09-19T06:49:28;15.90;82.20
4673;DHT22;61885;53.560;9.940;2023-09-19T06:52:01;15.90;82.20
4673;DHT22;61885;53.560;9.940;2023-09-19T06:54:32;16.00;82.30
4673;DHT22;61885;53.560;9.940;2023-09-19T06:57:03;15.90;82.40
4673;DHT22;61885;53.560;9.940;2023-09-19T06:59:36;16.00;82.20
4673;DHT22;61885;53.560;9.940;2023-09-19T07:02:11;16.00;82.30
4673;DHT22;61885;53.560;9.940;2023-09-19T07:04:43;16.00;82.10
4673;DHT22;61885;53.560;9.940;2023-09-19T07:07:15;16.00;82.30
4673;DHT22;61885;53.560;9.940;2023-09-19T07:09:47;15.90;82.40
4673;DHT22;61885;53.560;9.940;2023-09-19T07:12:18;15.90;82.60
4673;DHT22;61885;53.560;9.940;2023-09-19T07:14:47;16.10;82.50
4673;DHT22;61885;53.560;9.940;2023-09-19T07:17:20;16.30;81.60
4673;DHT22;61885;53.560;9.940;2023-09-19T07:19:53;16.30;81.80
4673;DHT22;61885;53.560;9.940;2023-09-19T07:22:27;16.30;81.60
4673;DHT22;61885;53.560;9.940;2023-09-19T07:24:56;16.30;81.40
4673;DHT22;61885;53.560;9.940;2023-09-19T07:27:26;16.40;81.10
4673;DHT22;61885;53.560;9.940;2023-09-19T07:29:56;16.40;80.90
4673;DHT22;61885;53.560;9.940;2023-09-19T07:32:28;16.20;81.50
4673;DHT22;61885;53.560;9.940;2023-09-19T07:34:57;16.20;82.00
4673;DHT22;61885;53.560;9.940;2023-09-19T07:37:34;16.30;81.50
4673;DHT22;61885;53.560;9.940;2023-09-19T07:40:06;16.30;81.40
4673;DHT22;61885;53.560;9.940;2023-09-19T07:42:37;16.30;81.20
4673;DHT22;61885;53.560;9.940;2023-09-19T07:45:08;16.20;81.40
4673;DHT22;61885;53.560;9.940;2023-09-19T07:47:43;16.10;81.60
4673;DHT22;61885;53.560;9.940;2023-09-19T07:50:13;16.00;82.10
4673;DHT22;61885;53.560;9.940;2023-09-19T07:52:49;16.10;83.30
4673;DHT22;61885;53.560;9.940;2023-09-19T07:55:22;15.60;89.10
4673;DHT22;61885;53.560;9.940;2023-09-19T07:57:53;15.00;91.70
4673;DHT22;61885;53.560;9.940;2023-09-19T08:00:23;14.80;93.50
4673;DHT22;61885;53.560;9.940;2023-09-19T08:02:55;14.80;94.50
4673;DHT22;61885;53.560;9.940;2023-09-19T08:05:26;14.60;93.20
4673;DHT22;61885;53.560;9.940;2023-09-19T08:08:00;14.50;93.10
4673;DHT22;61885;53.560;9.940;2023-09-19T08:10:34;14.50;94.00
4673;DHT22;61885;53.560;9.940;2023-09-19T08:13:07;14.60;94.20
4673;DHT22;61885;53.560;9.940;2023-09-19T08:15:45;14.60;92.90
4673;DHT22;61885;53.560;9.940;2023-09-19T08:18:14;14.80;93.70
4673;DHT22;61885;53.560;9.940;2023-09-19T08:20:49;14.80;91.50
4673;DHT22;61885;53.560;9.940;2023-09-19T08:23:22;15.00;92.50
4673;DHT22;61885;53.560;9.940;2023-09-19T08:25:56;15.10;90.70
4673;DHT22;61885;53.560;9.940;2023-09-19T08:28:30;15.20;89.40
4673;DHT22;61885;53.560;9.940;2023-09-19T08:31:02;15.20;89.40
4673;DHT22;61885;53.560;9.940;2023-09-19T08:33:34;15.30;89.50
4673;DHT22;61885;53.560;9.940;2023-09-19T08:36:05;15.20;89.50
4673;DHT22;61885;53.560;9.940;2023-09-19T08:38:43;15.30;87.60
4673;DHT22;61885;53.560;9.940;2023-09-19T08:41:13;15.40;87.20
4673;DHT22;61885;53.560;9.940;2023-09-19T08:43:45;15.50;86.50
4673;DHT22;61885;53.560;9.940;2023-09-19T08:46:17;15.60;87.60
4673;DHT22;61885;53.560;9.940;2023-09-19T08:48:57;15.50;85.80
4673;DHT22;61885;53.560;9.940;2023-09-19T08:51:33;15.50;87.10
4673;DHT22;61885;53.560;9.940;2023-09-19T08:54:16;15.60;86.90
4673;DHT22;61885;53.560;9.940;2023-09-19T08:56:51;15.70;87.00
4673;DHT22;61885;53.560;9.940;2023-09-19T08:59:24;15.80;86.40
4673;DHT22;61885;53.560;9.940;2023-09-19T09:01:56;15.80;85.40
4673;DHT22;61885;53.560;9.940;2023-09-19T09:04:33;15.90;85.30
4673;DHT22;61885;53.560;9.940;2023-09-19T09:07:04;16.10;85.00
4673;DHT22;61885;53.560;9.940;2023-09-19T09:09:37;16.00;84.50
4673;DHT22;61885;53.560;9.940;2023-09-19T09:12:11;16.00;84.30
4673;DHT22;61885;53.560;9.940;2023-09-19T09:14:45;16.10;83.20
4673;DHT22;61885;53.560;9.940;2023-09-19T09:17:17;16.20;82.70
4673;DHT22;61885;53.560;9.940;2023-09-19T09:19:47;16.30;83.80
4673;DHT22;61885;53.560;9.940;2023-09-19T09:22:23;16.30;82.20
4673;DHT22;61885;53.560;9.940;2023-09-19T09:24:56;16.40;81.80
4673;DHT22;61885;53.560;9.940;2023-09-19T09:27:30;16.60;81.50
4673;DHT22;61885;53.560;9.940;2023-09-19T09:30:01;16.60;81.40
4673;DHT22;61885;53.560;9.940;2023-09-19T09:32:31;16.80;81.50
4673;DHT22;61885;53.560;9.940;2023-09-19T09:35:08;16.90;80.60
4673;DHT22;61885;53.560;9.940;2023-09-19T09:37:43;17.00;79.70
4673;DHT22;61885;53.560;9.940;2023-09-19T09:40:16;17.10;78.90
4673;DHT22;61885;53.560;9.940;2023-09-19T09:43:04;16.90;78.30
4673;DHT22;61885;53.560;9.940;2023-09-19T09:46:16;17.10;77.80
4673;DHT22;61885;53.560;9.940;2023-09-19T09:49:02;17.10;77.50
4673;DHT22;61885;53.560;9.940;2023-09-19T09:52:19;17.30;76.80
4673;DHT22;61885;53.560;9.940;2023-09-19T09:55:00;17.20;76.50
4673;DHT22;61885;53.560;9.940;2023-09-19T09:57:35;17.40;76.20
4673;DHT22;61885;53.560;9.940;2023-09-19T10:00:11;17.30;75.50
4673;DHT22;61885;53.560;9.940;2023-09-19T10:02:50;17.40;74.80
4673;DHT22;61885;53.560;9.940;2023-09-19T10:05:20;17.60;73.90
4673;DHT22;61885;53.560;9.940;2023-09-19T10:07:55;17.60;73.70
4673;DHT22;61885;53.560;9.940;2023-09-19T10:10:31;17.70;72.60
4673;DHT22;61885;53.560;9.940;2023-09-19T10:13:14;18.00;71.10
4673;DHT22;61885;53.560;9.940;2023-09-19T10:15:51;18.00;70.80
4673;DHT22;61885;53.560;9.940;2023-09-19T10:18:22;18.10;69.80
4673;DHT22;61885;53.560;9.940;2023-09-19T10:20:53;18.20;68.60
4673;DHT22;61885;53.560;9.940;2023-09-19T10:23:26;18.20;68.90
4673;DHT22;61885;53.560;9.940;2023-09-19T10:26:04;18.10;69.20
4673;DHT22;61885;53.560;9.940;2023-09-19T10:28:42;18.30;68.30
4673;DHT22;61885;53.560;9.940;2023-09-19T10:31:18;18.40;70.20
4673;DHT22;61885;53.560;9.940;2023-09-19T10:33:52;18.50;69.10
4673;DHT22;61885;53.560;9.940;2023-09-19T10:36:26;18.50;69.40
4673;DHT22;61885;53.560;9.940;2023-09-19T10:39:05;18.50;68.40
4673;DHT22;61885;53.560;9.940;2023-09-19T10:41:38;18.50;68.30
4673;DHT22;61885;53.560;9.940;2023-09-19T10:44:12;18.50;68.50
4673;DHT22;61885;53.560;9.940;2023-09-19T10:46:51;18.40;68.90
4673;DHT22;61885;53.560;9.940;2023-09-19T10:49:23;18.50;68.40
4673;DHT22;61885;53.560;9.940;2023-09-19T10:51:56;18.40;68.20
4673;DHT22;61885;53.560;9.940;2023-09-19T10:54:32;18.40;68.80
4673;DHT22;61885;53.560;9.940;2023-09-19T10:57:08;18.50;68.20
4673;DHT22;61885;53.560;9.940;2023-09-19T11:00:00;18.40;68.40
4673;DHT22;61885;53.560;9.940;2023-09-19T11:06:05;18.70;68.30
4673;DHT22;61885;53.560;9.940;2023-09-19T11:09:02;18.80;67.80
4673;DHT22;61885;53.560;9.940;2023-09-19T11:11:54;18.60;67.20
4673;DHT22;61885;53.560;9.940;2023-09-19T11:14:46;18.40;68.30
4673;DHT22;61885;53.560;9.940;2023-09-19T11:17:40;18.40;68.60
4673;DHT22;61885;53.560;9.940;2023-09-19T11:20:28;18.50;68.00
4673;DHT22;61885;53.560;9.940;2023-09-19T11:23:21;18.60;67.40
4673;DHT22;61885;53.560;9.940;2023-09-19T11:25:55;18.70;67.10
4673;DHT22;61885;53.560;9.940;2023-09-19T11:28:33;19.00;66.20
4673;DHT22;61885;53.560;9.940;2023-09-19T11:34:46;18.80;64.80
4673;DHT22;61885;53.560;9.940;2023-09-19T11:40:29;18.90;65.20
4673;DHT22;61885;53.560;9.940;2023-09-19T11:43:28;18.90;64.80
4673;DHT22;61885;53.560;9.940;2023-09-19T11:46:03;18.80;65.10
4673;DHT22;61885;53.560;9.940;2023-09-19T11:48:35;19.00;64.60
4673;DHT22;61885;53.560;9.940;2023-09-19T11:51:17;19.00;65.30
4673;DHT22;61885;53.560;9.940;2023-09-19T11:53:57;19.10;65.60
4673;DHT22;61885;53.560;9.940;2023-09-19T11:56:27;19.40;65.30
4673;DHT22;61885;53.560;9.940;2023-09-19T11:58:58;19.50;65.00
4673;DHT22;61885;53.560;9.940;2023-09-19T12:01:37;19.40;64.80
4673;DHT22;61885;53.560;9.940;2023-09-19T12:04:11;19.20;64.90
4673;DHT22;61885;53.560;9.940;2023-09-19T12:06:56;19.20;65.00
4673;DHT22;61885;53.560;9.940;2023-09-19T12:09:26;19.30;65.00
4673;DHT22;61885;53.560;9.940;2023-09-19T12:11:58;19.20;64.70
4673;DHT22;61885;53.560;9.940;2023-09-19T12:14:29;19.00;65.40
4673;DHT22;61885;53.560;9.940;2023-09-19T12:16:59;19.20;65.10
4673;DHT22;61885;53.560;9.940;2023-09-19T12:19:30;19.30;64.70
4673;DHT22;61885;53.560;9.940;2023-09-19T12:22:04;19.30;64.30
4673;DHT22;61885;53.560;9.940;2023-09-19T12:24:41;19.40;63.80
4673;DHT22;61885;53.560;9.940;2023-09-19T12:27:11;19.40;63.90
4673;DHT22;61885;53.560;9.940;2023-09-19T12:29:44;19.60;63.10
4673;DHT22;61885;53.560;9.940;2023-09-19T12:32:16;19.60;62.40
4673;DHT22;61885;53.560;9.940;2023-09-19T12:34:52;19.50;63.20
4673;DHT22;61885;53.560;9.940;2023-09-19T12:37:25;19.40;63.10
4673;DHT22;61885;53.560;9.940;2023-09-19T12:40:06;19.60;63.10
4673;DHT22;61885;53.560;9.940;2023-09-19T12:42:50;19.50;62.80
4673;DHT22;61885;53.560;9.940;2023-09-19T12:45:20;19.50;61.80
4673;DHT22;61885;53.560;9.940;2023-09-19T12:48:21;19.60;62.40
4673;DHT22;61885;53.560;9.940;2023-09-19T12:51:04;19.70;61.70
4673;DHT22;61885;53.560;9.940;2023-09-19T12:53:40;19.90;61.80
4673;DHT22;61885;53.560;9.940;2023-09-19T12:56:13;19.60;61.50
4673;DHT22;61885;53.560;9.940;2023-09-19T12:58:51;19.70;61.20
4673;DHT22;61885;53.560;9.940;2023-09-19T13:01:25;19.70;61.40
4673;DHT22;61885;53.560;9.940;2023-09-19T13:04:16;19.70;60.50
4673;DHT22;61885;53.560;9.940;2023-09-19T13:06:53;19.80;60.20
4673;DHT22;61885;53.560;9.940;2023-09-19T13:09:30;20.00;60.10
4673;DHT22;61885;53.560;9.940;2023-09-19T13:12:03;20.10;59.50
4673;DHT22;61885;53.560;9.940;2023-09-19T13:14:35;20.00;59.10
4673;DHT22;61885;53.560;9.940;2023-09-19T13:17:08;20.00;59.40
4673;DHT22;61885;53.560;9.940;2023-09-19T13:19:43;20.10;59.90
4673;DHT22;61885;53.560;9.940;2023-09-19T13:22:37;20.10;60.20
4673;DHT22;61885;53.560;9.940;2023-09-19T13:25:15;20.30;59.80
4673;DHT22;61885;53.560;9.940;2023-09-19T13:27:49;20.30;58.60
4673;DHT22;61885;53.560;9.940;2023-09-19T13:30:22;20.10;59.70
4673;DHT22;61885;53.560;9.940;2023-09-19T13:33:03;20.30;57.80
4673;DHT22;61885;53.560;9.940;2023-09-19T13:35:34;20.50;57.50
4673;DHT22;61885;53.560;9.940;2023-09-19T13:38:05;20.60;57.30
4673;DHT22;61885;53.560;9.940;2023-09-19T13:40:42;20.70;55.70
4673;DHT22;61885;53.560;9.940;2023-09-19T13:43:12;20.90;56.50
4673;DHT22;61885;53.560;9.940;2023-09-19T13:45:44;21.20;55.80
4673;DHT22;61885;53.560;9.940;2023-09-19T13:48:15;21.50;55.40
4673;DHT22;61885;53.560;9.940;2023-09-19T13:50:49;21.30;55.10
4673;DHT22;61885;53.560;9.940;2023-09-19T13:53:19;21.40;55.30
4673;DHT22;61885;53.560;9.940;2023-09-19T13:55:52;21.30;55.10
4673;DHT22;61885;53.560;9.940;2023-09-19T13:58:26;21.10;55.80
4673;DHT22;61885;53.560;9.940;2023-09-19T14:00:58;21.30;55.30
4673;DHT22;61885;53.560;9.940;2023-09-19T14:03:30;21.10;55.60
4673;DHT22;61885;53.560;9.940;2023-09-19T14:06:02;20.90;56.00
4673;DHT22;61885;53.560;9.940;2023-09-19T14:08:37;20.70;56.50
4673;DHT22;61885;53.560;9.940;2023-09-19T14:11:11;20.60;56.50
4673;DHT22;61885;53.560;9.940;2023-09-19T14:13:42;20.70;56.80
4673;DHT22;61885;53.560;9.940;2023-09-19T14:16:16;20.80;56.50
4673;DHT22;61885;53.560;9.940;2023-09-19T14:18:49;20.90;55.60
4673;DHT22;61885;53.560;9.940;2023-09-19T14:21:19;20.90;56.50
4673;DHT22;61885;53.560;9.940;2023-09-19T14:23:51;20.70;57.60
4673;DHT22;61885;53.560;9.940;2023-09-19T14:26:29;20.70;57.70
4673;DHT22;61885;53.560;9.940;2023-09-19T14:29:00;20.90;56.50
4673;DHT22;61885;53.560;9.940;2023-09-19T14:31:31;20.50;58.10
4673;DHT22;61885;53.560;9.940;2023-09-19T14:34:01;20.60;58.40
4673;DHT22;61885;53.560;9.940;2023-09-19T14:36:37;20.60;57.90
4673;DHT22;61885;53.560;9.940;2023-09-19T14:39:10;20.60;58.30
4673;DHT22;61885;53.560;9.940;2023-09-19T14:41:49;20.30;59.00
4673;DHT22;61885;53.560;9.940;2023-09-19T14:44:21;20.30;59.80
4673;DHT22;61885;53.560;9.940;2023-09-19T14:46:52;19.90;60.80
4673;DHT22;61885;53.560;9.940;2023-09-19T14:49:22;19.90;61.50
4673;DHT22;61885;53.560;9.940;2023-09-19T14:51:52;20.00;61.30
4673;DHT22;61885;53.560;9.940;2023-09-19T14:54:23;19.90;61.80
4673;DHT22;61885;53.560;9.940;2023-09-19T14:56:58;19.90;62.00
4673;DHT22;61885;53.560;9.940;2023-09-19T14:59:34;19.80;62.30
4673;DHT22;61885;53.560;9.940;2023-09-19T15:02:05;19.90;62.20
4673;DHT22;61885;53.560;9.940;2023-09-19T15:04:36;19.80;62.60
4673;DHT22;61885;53.560;9.940;2023-09-19T15:07:07;19.80;63.10
4673;DHT22;61885;53.560;9.940;2023-09-19T15:09:38;19.70;62.70
4673;DHT22;61885;53.560;9.940;2023-09-19T15:12:12;19.60;63.30
4673;DHT22;61885;53.560;9.940;2023-09-19T15:14:47;19.60;63.40
4673;DHT22;61885;53.560;9.940;2023-09-19T15:17:19;19.70;63.30
4673;DHT22;61885;53.560;9.940;2023-09-19T15:20:03;19.60;63.90
4673;DHT22;61885;53.560;9.940;2023-09-19T15:22:35;19.60;64.10
4673;DHT22;61885;53.560;9.940;2023-09-19T15:25:08;19.50;64.10
4673;DHT22;61885;53.560;9.940;2023-09-19T15:27:44;19.60;64.20
4673;DHT22;61885;53.560;9.940;2023-09-19T15:30:16;19.60;64.20
4673;DHT22;61885;53.560;9.940;2023-09-19T15:32:46;19.60;64.40
4673;DHT22;61885;53.560;9.940;2023-09-19T15:35:26;19.60;64.20
4673;DHT22;61885;53.560;9.940;2023-09-19T15:38:01;19.60;64.40
4673;DHT22;61885;53.560;9.940;2023-09-19T15:40:30;19.50;64.70
4673;DHT22;61885;53.560;9.940;2023-09-19T15:43:04;19.60;64.70
4673;DHT22;61885;53.560;9.940;2023-09-19T15:45:37;19.60;64.80
4673;DHT22;61885;53.560;9.940;2023-09-19T15:48:09;19.60;65.00
4673;DHT22;61885;53.560;9.940;2023-09-19T15:50:41;19.50;65.00
4673;DHT22;61885;53.560;9.940;2023-09-19T15:53:11;19.50;65.00
4673;DHT22;61885;53.560;9.940;2023-09-19T15:55:45;19.30;65.30
4673;DHT22;61885;53.560;9.940;2023-09-19T15:58:26;19.50;65.30
4673;DHT22;61885;53.560;9.940;2023-09-19T16:00:58;19.50;64.90
4673;DHT22;61885;53.560;9.940;2023-09-19T16:03:37;19.40;65.10
4673;DHT22;61885;53.560;9.940;2023-09-19T16:06:13;19.40;65.10
4673;DHT22;61885;53.560;9.940;2023-09-19T16:08:45;19.40;64.90
4673;DHT22;61885;53.560;9.940;2023-09-19T16:11:17;19.30;65.30
4673;DHT22;61885;53.560;9.940;2023-09-19T16:13:55;19.30;65.30
4673;DHT22;61885;53.560;9.940;2023-09-19T16:16:28;19.40;65.50
4673;DHT22;61885;53.560;9.940;2023-09-19T16:19:02;19.30;65.10
4673;DHT22;61885;53.560;9.940;2023-09-19T16:21:37;19.30;65.10
4673;DHT22;61885;53.560;9.940;2023-09-19T16:24:11;19.30;65.70
4673;DHT22;61885;53.560;9.940;2023-09-19T16:26:43;19.20;65.70
4673;DHT22;61885;53.560;9.940;2023-09-19T16:29:18;19.20;65.50
4673;DHT22;61885;53.560;9.940;2023-09-19T16:32:01;19.30;65.60
4673;DHT22;61885;53.560;9.940;2023-09-19T16:34:32;19.30;65.40
4673;DHT22;61885;53.560;9.940;2023-09-19T16:37:02;19.30;65.50
4673;DHT22;61885;53.560;9.940;2023-09-19T16:39:36;19.30;66.20
4673;DHT22;61885;53.560;9.940;2023-09-19T16:42:31;19.20;65.90